createdAt,value
2022-12-19T00:01:27.777Z,85.56
2022-12-19T00:03:27.909Z,85.70
2022-12-19T00:05:26.255Z,85.51
2022-12-19T00:07:24.455Z,86.32
2022-12-19T00:09:22.731Z,85.93
2022-12-19T00:11:23.690Z,86.26
2022-12-19T00:13:21.773Z,86.09
2022-12-19T00:15:20.015Z,86.20
2022-12-19T00:17:19.610Z,86.63
2022-12-19T00:19:18.078Z,87.00
2022-12-19T00:21:17.936Z,86.80
2022-12-19T00:23:16.092Z,86.61
2022-12-19T00:25:14.399Z,86.63
2022-12-19T00:27:12.703Z,87.26
2022-12-19T00:29:14.375Z,87.50
2022-12-19T00:31:16.916Z,87.37
2022-12-19T00:33:16.508Z,87.67
2022-12-19T00:35:15.265Z,87.34
2022-12-19T00:37:13.552Z,87.56
2022-12-19T00:39:11.922Z,87.62
2022-12-19T00:41:11.997Z,88.09
2022-12-19T00:43:10.163Z,87.67
2022-12-19T00:45:08.928Z,88.33
2022-12-19T00:47:07.131Z,88.01
2022-12-19T00:49:07.335Z,87.73
2022-12-19T00:51:07.574Z,88.20
2022-12-19T00:53:05.713Z,88.42
2022-12-19T00:55:08.197Z,88.58
2022-12-19T00:57:17.167Z,88.40
2022-12-19T00:59:15.379Z,88.75
2022-12-19T01:01:19.377Z,88.08
2022-12-19T01:03:17.642Z,88.17
2022-12-19T01:05:17.520Z,87.78
2022-12-19T01:07:15.591Z,88.11
2022-12-19T01:09:14.218Z,88.19
2022-12-19T01:11:13.532Z,88.34
2022-12-19T01:13:10.663Z,88.38
2022-12-19T01:15:09.649Z,88.93
2022-12-19T01:17:07.928Z,88.50
2022-12-19T01:19:06.074Z,88.54
2022-12-19T01:21:09.438Z,88.18
2022-12-19T01:23:07.840Z,88.32
2022-12-19T01:25:07.334Z,88.90
2022-12-19T01:27:05.681Z,88.87
2022-12-19T01:29:03.894Z,88.90
2022-12-19T01:31:02.176Z,88.83
2022-12-19T01:33:01.872Z,88.66
2022-12-19T01:34:58.930Z,89.35
2022-12-19T01:36:58.638Z,89.44
2022-12-19T01:38:57.102Z,88.79
2022-12-19T01:40:57.283Z,89.13
2022-12-19T01:42:55.443Z,88.71
2022-12-19T01:45:27.774Z,89.42
2022-12-19T01:47:33.231Z,89.30
2022-12-19T01:49:34.312Z,89.21
2022-12-19T01:51:38.706Z,89.22
2022-12-19T01:53:48.885Z,88.41
2022-12-19T01:55:48.214Z,87.91
2022-12-19T01:57:46.504Z,87.93
2022-12-19T01:59:47.308Z,88.48
2022-12-19T02:01:51.802Z,88.52
2022-12-19T02:03:55.458Z,88.35
2022-12-19T02:05:54.895Z,88.66
2022-12-19T02:07:54.298Z,88.99
2022-12-19T02:09:57.531Z,89.02
2022-12-19T02:12:05.446Z,88.25
2022-12-19T02:14:07.958Z,88.20
2022-12-19T02:16:16.049Z,88.11
2022-12-19T02:18:25.692Z,88.12
2022-12-19T02:21:04.355Z,87.63
2022-12-19T02:23:24.949Z,87.82
2022-12-19T02:25:51.999Z,88.26
2022-12-19T02:28:34.238Z,88.30
2022-12-19T02:30:47.581Z,88.83
2022-12-19T02:33:02.053Z,89.08
2022-12-19T02:35:11.187Z,89.39
2022-12-19T02:37:18.977Z,89.40
2022-12-19T02:39:26.296Z,88.97
2022-12-19T02:41:30.686Z,88.50
2022-12-19T02:43:33.862Z,88.30
2022-12-19T02:45:37.275Z,88.39
2022-12-19T02:47:37.916Z,88.73
2022-12-19T02:49:38.682Z,88.33
2022-12-19T02:51:37.715Z,88.26
2022-12-19T02:53:38.475Z,88.04
2022-12-19T02:55:43.655Z,88.27
2022-12-19T02:57:54.692Z,88.35
2022-12-19T03:00:04.012Z,88.85
2022-12-19T03:02:12.003Z,88.74
2022-12-19T03:04:21.123Z,89.54
2022-12-19T03:06:27.122Z,89.62
2022-12-19T03:08:29.757Z,89.60
2022-12-19T03:10:37.521Z,89.81
2022-12-19T03:12:40.620Z,89.93
2022-12-19T03:14:39.033Z,89.61
2022-12-19T03:16:38.452Z,89.34
2022-12-19T03:18:37.145Z,90.02
2022-12-19T03:20:45.520Z,89.97
2022-12-19T03:22:43.865Z,89.92
2022-12-19T03:24:43.307Z,90.18
2022-12-19T03:26:48.318Z,90.22
2022-12-19T03:28:50.879Z,90.69
2022-12-19T03:30:50.167Z,90.93
2022-12-19T03:32:50.264Z,90.97
2022-12-19T03:34:51.846Z,91.11
2022-12-19T03:36:56.416Z,91.39
2022-12-19T03:38:55.986Z,91.29
2022-12-19T03:40:55.865Z,91.31
2022-12-19T03:43:08.960Z,91.59
2022-12-19T03:45:07.727Z,91.29
2022-12-19T03:47:12.638Z,91.16
2022-12-19T03:49:10.943Z,90.92
2022-12-19T03:51:16.967Z,91.19
2022-12-19T03:53:30.179Z,91.05
2022-12-19T03:55:37.236Z,90.82
2022-12-19T03:57:42.810Z,90.32
2022-12-19T03:59:45.927Z,90.19
2022-12-19T04:01:45.991Z,89.75
2022-12-19T04:03:44.741Z,90.28
2022-12-19T04:05:44.488Z,90.67
2022-12-19T04:07:43.747Z,90.02
2022-12-19T04:09:46.021Z,89.69
2022-12-19T04:11:52.685Z,90.53
2022-12-19T04:13:57.107Z,90.06
2022-12-19T04:16:01.226Z,90.50
2022-12-19T04:18:01.840Z,89.71
2022-12-19T04:20:04.745Z,89.95
2022-12-19T04:22:10.875Z,90.37
2022-12-19T04:24:13.947Z,90.51
2022-12-19T04:26:15.525Z,90.93
2022-12-19T04:28:20.088Z,89.91
2022-12-19T04:30:19.109Z,90.19
2022-12-19T04:32:17.512Z,90.58
2022-12-19T04:34:20.014Z,90.21
2022-12-19T04:36:18.325Z,89.60
2022-12-19T04:38:16.676Z,89.53
2022-12-19T04:40:15.539Z,89.26
2022-12-19T04:42:15.220Z,89.39
2022-12-19T04:44:13.374Z,89.18
2022-12-19T04:46:11.658Z,89.26
2022-12-19T04:48:10.009Z,89.44
2022-12-19T04:50:08.727Z,89.80
2022-12-19T04:52:05.989Z,89.81
2022-12-19T04:54:06.361Z,90.29
2022-12-19T04:56:05.924Z,90.92
2022-12-19T04:58:06.785Z,90.75
2022-12-19T05:00:08.528Z,90.32
2022-12-19T05:02:10.159Z,90.62
2022-12-19T05:04:08.506Z,90.09
2022-12-19T05:06:08.536Z,90.57
2022-12-19T05:08:07.806Z,90.91
2022-12-19T05:10:08.396Z,90.26
2022-12-19T05:12:06.943Z,91.07
2022-12-19T05:14:06.784Z,91.03
2022-12-19T05:16:07.498Z,91.29
2022-12-19T05:18:06.013Z,91.04
2022-12-19T05:20:04.511Z,91.37
2022-12-19T05:22:02.760Z,90.98
2022-12-19T05:24:01.993Z,91.20
2022-12-19T05:26:01.458Z,91.79
2022-12-19T05:27:59.527Z,92.03
2022-12-19T05:29:59.329Z,91.82
2022-12-19T05:32:06.502Z,92.13
2022-12-19T05:34:04.761Z,91.79
2022-12-19T05:36:03.457Z,92.00
2022-12-19T05:38:01.645Z,91.99
2022-12-19T05:39:59.938Z,91.89
2022-12-19T05:41:58.117Z,92.04
2022-12-19T05:43:57.832Z,92.59
2022-12-19T05:45:57.538Z,92.68
2022-12-19T05:47:59.980Z,92.92
2022-12-19T05:49:59.544Z,92.67
2022-12-19T05:51:57.765Z,92.01
2022-12-19T05:53:56.117Z,92.54
2022-12-19T05:55:54.960Z,92.79
2022-12-19T05:57:53.307Z,92.91
2022-12-19T05:59:51.518Z,93.00
2022-12-19T06:01:51.183Z,92.42
2022-12-19T06:03:50.410Z,92.17
2022-12-19T06:05:48.649Z,91.92
2022-12-19T06:07:46.834Z,91.92
2022-12-19T06:09:45.189Z,91.86
2022-12-19T06:11:43.359Z,91.48
2022-12-19T06:13:42.237Z,91.56
2022-12-19T06:15:40.633Z,91.51
2022-12-19T06:17:40.187Z,90.82
2022-12-19T06:19:38.490Z,90.74
2022-12-19T06:21:42.275Z,90.66
2022-12-19T06:23:44.836Z,90.47
2022-12-19T06:25:43.057Z,90.34
2022-12-19T06:27:41.312Z,89.81
2022-12-19T06:29:39.667Z,90.06
2022-12-19T06:31:38.287Z,89.10
2022-12-19T06:33:37.910Z,89.25
2022-12-19T06:35:37.270Z,89.29
2022-12-19T06:40:07.748Z,88.27
2022-12-19T06:42:23.180Z,87.96
2022-12-19T06:44:21.402Z,87.01
2022-12-19T06:46:19.772Z,86.54
2022-12-19T06:48:18.032Z,86.12
2022-12-19T06:50:17.903Z,85.97
2022-12-19T06:52:16.541Z,86.58
2022-12-19T06:54:15.952Z,85.70
2022-12-19T06:56:16.585Z,85.96
2022-12-19T06:58:14.840Z,85.80
2022-12-19T07:00:14.444Z,85.14
2022-12-19T07:02:26.354Z,85.60
2022-12-19T07:04:30.740Z,84.52
2022-12-19T07:06:31.097Z,84.78
2022-12-19T07:08:29.626Z,84.88
2022-12-19T07:10:28.179Z,85.04
2022-12-19T07:12:26.419Z,84.59
2022-12-19T07:14:24.986Z,84.98
2022-12-19T07:16:24.047Z,85.21
2022-12-19T07:18:22.318Z,84.42
2022-12-19T07:20:22.403Z,84.25
2022-12-19T07:22:22.236Z,83.73
2022-12-19T07:24:20.453Z,84.07
2022-12-19T07:26:18.961Z,84.53
2022-12-19T07:28:18.056Z,84.89
2022-12-19T07:30:16.291Z,85.08
2022-12-19T07:32:14.755Z,85.95
2022-12-19T07:34:12.968Z,84.66
2022-12-19T07:36:11.525Z,84.69
2022-12-19T07:38:11.078Z,84.21
2022-12-19T07:40:15.290Z,84.33
2022-12-19T07:42:13.470Z,84.25
2022-12-19T07:44:13.313Z,83.61
2022-12-19T07:46:11.667Z,83.75
2022-12-19T07:48:10.142Z,83.20
2022-12-19T07:50:08.742Z,83.26
2022-12-19T07:52:07.060Z,83.90
2022-12-19T07:54:09.643Z,84.32
2022-12-19T07:56:08.927Z,85.26
2022-12-19T07:58:09.550Z,85.47
2022-12-19T08:00:09.024Z,84.42
2022-12-19T08:02:10.685Z,83.59
2022-12-19T08:04:10.005Z,83.26
2022-12-19T08:06:09.139Z,83.78
2022-12-19T08:08:08.857Z,84.11
2022-12-19T08:10:11.429Z,83.51
2022-12-19T08:12:10.477Z,82.83
2022-12-19T08:14:08.771Z,83.54
2022-12-19T08:16:07.828Z,83.84
2022-12-19T08:18:06.153Z,83.83
2022-12-19T08:20:04.809Z,84.09
2022-12-19T08:22:03.335Z,84.57
2022-12-19T08:24:01.849Z,84.93
2022-12-19T08:26:03.931Z,83.99
2022-12-19T08:28:02.065Z,83.63
2022-12-19T08:30:00.401Z,84.13
2022-12-19T08:31:58.680Z,83.37
2022-12-19T08:33:58.185Z,81.88
2022-12-19T08:35:56.428Z,81.71
2022-12-19T08:37:54.792Z,82.40
2022-12-19T08:39:53.199Z,82.75
2022-12-19T08:41:52.743Z,82.20
2022-12-19T08:43:52.526Z,82.68
2022-12-19T08:45:51.031Z,82.34
2022-12-19T08:47:49.377Z,82.18
2022-12-19T08:49:47.720Z,82.15
2022-12-19T08:51:45.982Z,81.62
2022-12-19T08:53:46.363Z,81.91
2022-12-19T08:55:44.617Z,81.94
2022-12-19T08:57:44.345Z,81.88
2022-12-19T08:59:42.679Z,81.54
2022-12-19T09:01:42.052Z,81.80
2022-12-19T09:03:59.838Z,81.84
2022-12-19T09:06:06.943Z,82.38
2022-12-19T09:08:09.252Z,82.30
2022-12-19T09:10:08.929Z,81.54
2022-12-19T09:12:07.503Z,81.63
2022-12-19T09:14:06.989Z,81.07
2022-12-19T09:16:07.672Z,81.29
2022-12-19T09:18:06.043Z,81.29
2022-12-19T09:20:04.395Z,81.55
2022-12-19T09:22:02.764Z,81.50
2022-12-19T09:24:07.388Z,81.33
2022-12-19T09:26:09.006Z,81.75
2022-12-19T09:30:26.744Z,82.10
2022-12-19T09:32:25.751Z,82.08
2022-12-19T09:34:24.398Z,82.35
2022-12-19T09:36:29.993Z,82.34
2022-12-19T09:38:29.913Z,82.33
2022-12-19T09:40:51.987Z,82.62
2022-12-19T09:43:04.313Z,82.34
2022-12-19T09:45:31.094Z,81.41
2022-12-19T09:47:33.859Z,81.31
2022-12-19T09:49:41.776Z,81.32
2022-12-19T09:51:45.275Z,81.04
2022-12-19T09:53:58.125Z,81.05
2022-12-19T09:55:59.469Z,81.18
2022-12-19T09:58:05.676Z,80.95
2022-12-19T10:00:08.019Z,81.31
2022-12-19T10:02:25.327Z,81.39
2022-12-19T10:04:28.021Z,82.43
2022-12-19T10:07:14.470Z,82.38
2022-12-19T10:09:16.255Z,81.37
2022-12-19T10:12:38.878Z,81.54
2022-12-19T10:13:40.195Z,81.42
2022-12-19T10:16:00.212Z,82.18
2022-12-19T10:18:12.747Z,81.73
2022-12-19T10:20:20.884Z,81.62
2022-12-19T10:22:28.807Z,80.70
2022-12-19T10:24:57.604Z,80.41
2022-12-19T10:27:14.546Z,79.41
2022-12-19T10:29:31.392Z,78.31
2022-12-19T10:31:38.163Z,78.71
2022-12-19T10:33:42.182Z,76.26
2022-12-19T10:35:45.198Z,74.66
2022-12-19T10:37:50.908Z,76.05
2022-12-19T10:39:58.592Z,78.69
2022-12-19T10:42:04.058Z,80.11
2022-12-19T10:44:05.896Z,78.92
2022-12-19T10:46:14.899Z,78.32
2022-12-19T10:48:18.790Z,79.11
2022-12-19T10:50:26.615Z,79.72
2022-12-19T10:52:52.675Z,79.64
2022-12-19T10:54:51.091Z,80.51
2022-12-19T10:56:49.497Z,81.68
2022-12-19T10:58:52.116Z,81.25
2022-12-19T11:01:11.923Z,80.92
2022-12-19T11:03:19.048Z,81.10
2022-12-19T11:05:27.062Z,81.14
2022-12-19T11:07:25.602Z,81.50
2022-12-19T11:09:30.240Z,81.59
2022-12-19T11:14:29.751Z,82.37
2022-12-19T11:16:55.885Z,82.73
2022-12-19T11:21:40.797Z,82.95
2022-12-19T11:22:11.348Z,82.60
2022-12-19T11:29:32.819Z,84.03
2022-12-19T11:29:38.156Z,83.24
2022-12-19T11:29:53.423Z,83.35
2022-12-19T11:30:41.737Z,84.04
2022-12-19T11:31:51.170Z,83.98
2022-12-19T11:33:14.658Z,83.67
2022-12-19T11:35:20.931Z,84.17
2022-12-19T11:37:34.285Z,83.94
2022-12-19T11:39:38.251Z,84.14
2022-12-19T11:41:43.113Z,84.23
2022-12-19T11:43:49.380Z,83.65
2022-12-19T11:45:57.001Z,83.46
2022-12-19T11:48:00.174Z,83.16
2022-12-19T11:50:05.463Z,83.81
2022-12-19T11:53:01.828Z,84.39
2022-12-19T11:54:46.142Z,84.14
2022-12-19T11:56:46.846Z,84.00
2022-12-19T11:58:49.688Z,83.89
2022-12-19T12:00:52.395Z,84.62
2022-12-19T12:03:21.210Z,84.83
2022-12-19T12:05:37.439Z,84.02
2022-12-19T12:08:25.506Z,83.74
2022-12-19T12:14:13.722Z,83.88
2022-12-19T12:17:52.343Z,84.13
2022-12-19T12:26:36.144Z,83.84
2022-12-19T12:31:04.528Z,83.63
2022-12-19T12:31:08.776Z,84.26
2022-12-19T12:31:08.851Z,84.26
2022-12-19T12:31:51.538Z,83.72
2022-12-19T12:32:02.750Z,84.45
2022-12-19T12:32:05.402Z,83.34
2022-12-19T12:35:51.512Z,83.29
2022-12-19T12:40:41.202Z,84.38
2022-12-19T12:42:54.385Z,84.27
2022-12-19T12:44:56.724Z,84.16
2022-12-19T12:47:03.762Z,83.82
2022-12-19T12:49:05.863Z,84.19
2022-12-19T12:51:05.614Z,84.46
2022-12-19T12:53:09.895Z,84.07
2022-12-19T12:55:19.352Z,84.22
2022-12-19T12:57:21.132Z,84.19
2022-12-19T12:59:25.070Z,83.85
2022-12-19T13:01:34.364Z,83.83
2022-12-19T13:03:32.724Z,82.93
2022-12-19T13:05:40.681Z,83.09
2022-12-19T13:07:43.946Z,82.94
2022-12-19T13:09:43.288Z,82.95
2022-12-19T13:12:03.885Z,82.45
2022-12-19T13:14:02.209Z,82.85
2022-12-19T13:16:21.786Z,82.36
2022-12-19T13:18:40.890Z,81.35
2022-12-19T13:20:45.659Z,79.80
2022-12-19T13:22:45.091Z,79.45
2022-12-19T13:24:45.012Z,79.71
2022-12-19T13:26:52.421Z,79.75
2022-12-19T13:28:50.824Z,79.42
2022-12-19T13:31:22.881Z,79.06
2022-12-19T13:33:21.792Z,79.56
2022-12-19T13:36:47.775Z,79.08
2022-12-19T13:40:00.874Z,79.21
2022-12-19T13:40:33.185Z,78.89
2022-12-19T13:42:55.152Z,78.67
2022-12-19T13:45:14.001Z,78.58
2022-12-19T13:47:20.302Z,78.82
2022-12-19T13:49:34.144Z,79.47
2022-12-19T13:51:53.441Z,78.83
2022-12-19T13:53:59.638Z,78.79
2022-12-19T13:56:02.316Z,78.73
2022-12-19T13:58:04.755Z,79.03
2022-12-19T14:00:10.303Z,79.39
2022-12-19T14:02:16.310Z,79.19
2022-12-19T14:04:27.587Z,79.01
2022-12-19T14:06:28.461Z,78.54
2022-12-19T14:08:29.104Z,78.70
2022-12-19T14:11:33.220Z,77.90
2022-12-19T14:13:57.407Z,78.22
2022-12-19T14:15:39.618Z,77.87
2022-12-19T14:17:37.831Z,77.74
2022-12-19T14:19:42.465Z,78.06
2022-12-19T14:22:04.809Z,77.99
2022-12-19T14:24:12.833Z,79.02
2022-12-19T14:28:18.424Z,79.52
2022-12-19T14:28:41.842Z,79.30
2022-12-19T14:30:42.183Z,79.75
2022-12-19T14:33:46.308Z,79.70
2022-12-19T14:36:10.558Z,79.77
2022-12-19T14:37:37.074Z,80.13
2022-12-19T14:39:48.721Z,80.10
2022-12-19T14:42:07.208Z,80.10
2022-12-19T14:52:08.570Z,80.95
2022-12-19T14:54:01.856Z,80.95
2022-12-19T14:54:06.893Z,80.57
2022-12-19T14:54:26.177Z,81.26
2022-12-19T14:54:38.018Z,81.73
2022-12-19T14:58:53.140Z,81.55
2022-12-19T15:01:09.286Z,79.60
2022-12-19T15:03:15.713Z,80.35
2022-12-19T15:05:17.018Z,80.57
2022-12-19T15:07:22.539Z,80.42
2022-12-19T15:11:00.842Z,79.15
2022-12-19T15:13:46.768Z,78.96
2022-12-19T15:14:52.915Z,79.04
2022-12-19T15:16:44.747Z,78.99
2022-12-19T15:18:43.510Z,79.52
2022-12-19T15:20:41.770Z,79.89
2022-12-19T15:22:41.380Z,80.19
2022-12-19T15:24:39.625Z,81.61
2022-12-19T15:26:48.200Z,82.71
2022-12-19T15:28:50.795Z,84.13
2022-12-19T15:30:54.027Z,84.91
2022-12-19T15:32:52.128Z,85.39
2022-12-19T15:34:51.759Z,85.74
2022-12-19T15:36:50.348Z,86.05
2022-12-19T15:38:49.976Z,86.06
2022-12-19T15:40:48.637Z,86.18
2022-12-19T15:42:52.720Z,85.76
2022-12-19T15:44:52.475Z,85.84
2022-12-19T15:46:50.830Z,86.05
2022-12-19T15:48:51.335Z,85.78
2022-12-19T15:50:49.548Z,85.75
2022-12-19T15:52:48.450Z,85.79
2022-12-19T15:54:50.088Z,85.53
2022-12-19T15:56:52.643Z,85.56
2022-12-19T15:58:51.435Z,85.28
2022-12-19T16:00:54.164Z,85.68
2022-12-19T16:05:12.164Z,86.05
2022-12-19T16:07:15.995Z,86.54
2022-12-19T16:09:21.026Z,86.47
2022-12-19T16:11:23.892Z,86.64
2022-12-19T16:13:24.969Z,87.04
2022-12-19T16:15:26.591Z,87.13
2022-12-19T16:17:26.528Z,86.48
2022-12-19T16:19:26.975Z,86.64
2022-12-19T16:21:34.096Z,86.37
2022-12-19T16:23:32.852Z,86.00
2022-12-19T16:25:36.008Z,85.79
2022-12-19T16:27:36.585Z,85.66
2022-12-19T16:29:38.177Z,85.53
2022-12-19T16:31:40.027Z,85.51
2022-12-19T16:33:38.266Z,85.26
2022-12-19T16:37:54.787Z,85.32
2022-12-19T16:39:53.630Z,85.42
2022-12-19T16:41:52.297Z,85.29
2022-12-19T16:43:52.520Z,85.18
2022-12-19T16:45:50.830Z,85.16
2022-12-19T16:47:50.134Z,84.78
2022-12-19T16:49:48.377Z,84.83
2022-12-19T16:51:47.882Z,85.20
2022-12-19T16:53:46.331Z,84.90
2022-12-19T16:55:45.737Z,85.15
2022-12-19T16:57:45.352Z,85.01
2022-12-19T16:59:45.188Z,84.88
2022-12-19T17:01:45.159Z,84.47
2022-12-19T17:03:45.873Z,85.05
2022-12-19T17:05:44.240Z,84.84
2022-12-19T17:07:42.443Z,84.88
2022-12-19T17:09:40.689Z,85.15
2022-12-19T17:11:39.139Z,85.02
2022-12-19T17:13:37.459Z,84.90
2022-12-19T17:15:38.909Z,85.01
2022-12-19T17:17:37.047Z,85.09
2022-12-19T17:19:38.437Z,84.92
2022-12-19T17:21:36.654Z,84.96
2022-12-19T17:23:35.377Z,84.99
2022-12-19T17:25:33.562Z,84.70
2022-12-19T17:27:31.863Z,85.04
2022-12-19T17:29:30.341Z,84.86
2022-12-19T17:31:38.064Z,85.10
2022-12-19T17:33:39.580Z,84.65
2022-12-19T17:35:38.087Z,85.01
2022-12-19T17:37:36.262Z,84.67
2022-12-19T17:39:35.808Z,84.94
2022-12-19T17:41:34.199Z,84.59
2022-12-19T17:43:32.571Z,84.87
2022-12-19T17:45:32.153Z,85.02
2022-12-19T17:47:31.943Z,85.17
2022-12-19T17:49:32.386Z,84.97
2022-12-19T17:51:31.032Z,85.63
2022-12-19T17:53:29.227Z,84.97
2022-12-19T17:55:29.447Z,84.87
2022-12-19T17:57:27.651Z,84.89
2022-12-19T17:59:26.177Z,84.51
2022-12-19T18:01:25.835Z,84.40
2022-12-19T18:03:27.543Z,84.67
2022-12-19T18:05:29.390Z,84.54
2022-12-19T18:07:27.586Z,83.49
2022-12-19T18:09:26.586Z,83.51
2022-12-19T18:11:27.252Z,83.87
2022-12-19T18:13:26.466Z,83.89
2022-12-19T18:15:26.418Z,83.13
2022-12-19T18:17:27.191Z,82.51
2022-12-19T18:19:30.140Z,82.61
2022-12-19T18:21:28.441Z,82.36
2022-12-19T18:23:26.931Z,81.44
2022-12-19T18:25:27.515Z,81.13
2022-12-19T18:27:25.906Z,79.87
2022-12-19T18:29:25.832Z,79.90
2022-12-19T18:31:26.721Z,78.89
2022-12-19T18:33:25.436Z,78.78
2022-12-19T18:35:30.021Z,78.35
2022-12-19T18:37:28.240Z,77.71
2022-12-19T18:39:28.835Z,77.34
2022-12-19T18:41:28.157Z,77.16
2022-12-19T18:43:26.351Z,76.53
2022-12-19T18:45:28.205Z,75.97
2022-12-19T18:47:26.859Z,76.58
2022-12-19T18:49:25.187Z,76.06
2022-12-19T18:51:25.352Z,76.48
2022-12-19T18:53:29.835Z,76.06
2022-12-19T18:55:32.907Z,76.51
2022-12-19T18:57:31.205Z,75.48
2022-12-19T18:59:29.517Z,76.07
2022-12-19T19:01:27.886Z,76.33
2022-12-19T19:03:30.131Z,76.05
2022-12-19T19:05:30.582Z,75.38
2022-12-19T19:07:30.276Z,75.05
2022-12-19T19:09:28.544Z,74.51
2022-12-19T19:12:06.203Z,73.94
2022-12-19T19:14:04.414Z,74.60
2022-12-19T19:16:05.625Z,74.52
2022-12-19T19:18:06.049Z,74.76
2022-12-19T19:20:09.628Z,74.75
2022-12-19T19:22:07.985Z,75.79
2022-12-19T19:24:11.740Z,75.46
2022-12-19T19:26:10.554Z,75.34
2022-12-19T19:28:09.024Z,75.46
2022-12-19T19:30:10.216Z,75.31
2022-12-19T19:32:08.643Z,75.62
2022-12-19T19:34:12.013Z,75.52
2022-12-19T19:36:14.922Z,75.39
2022-12-19T19:38:14.670Z,74.65
2022-12-19T19:40:15.496Z,75.37
2022-12-19T19:42:13.870Z,74.59
2022-12-19T19:44:12.176Z,74.80
2022-12-19T19:46:10.537Z,74.73
2022-12-19T19:48:09.275Z,75.35
2022-12-19T19:50:09.211Z,74.21
2022-12-19T19:52:07.588Z,73.98
2022-12-19T19:54:06.226Z,74.05
2022-12-19T19:56:06.788Z,73.53
2022-12-19T19:58:05.385Z,73.44
2022-12-19T20:00:04.674Z,73.77
2022-12-19T20:02:11.499Z,73.88
2022-12-19T20:04:12.897Z,74.22
2022-12-19T20:06:11.366Z,73.45
2022-12-19T20:08:09.744Z,73.87
2022-12-19T20:10:10.135Z,73.97
2022-12-19T20:12:09.929Z,73.61
2022-12-19T20:14:08.084Z,73.74
2022-12-19T20:16:07.723Z,73.62
2022-12-19T20:18:06.127Z,73.66
2022-12-19T20:20:04.969Z,73.08
2022-12-19T20:22:05.421Z,73.11
2022-12-19T20:24:03.661Z,73.14
2022-12-19T20:26:02.567Z,73.25
2022-12-19T20:28:03.060Z,73.39
2022-12-19T20:30:01.604Z,73.12
2022-12-19T20:32:00.189Z,73.35
2022-12-19T20:33:58.602Z,73.03
2022-12-19T20:35:57.966Z,72.76
2022-12-19T20:37:56.360Z,72.84
2022-12-19T20:39:54.714Z,72.98
2022-12-19T20:41:54.005Z,72.92
2022-12-19T20:43:53.633Z,73.23
2022-12-19T20:45:52.020Z,73.40
2022-12-19T20:47:50.388Z,73.52
2022-12-19T20:49:49.120Z,73.61
2022-12-19T20:51:48.364Z,74.34
2022-12-19T20:53:47.116Z,74.07
2022-12-19T20:55:57.595Z,74.25
2022-12-19T20:57:56.499Z,74.84
2022-12-19T20:59:56.352Z,74.94
2022-12-19T21:01:56.375Z,74.57
2022-12-19T21:03:54.834Z,74.89
2022-12-19T21:05:54.252Z,75.05
2022-12-19T21:07:52.471Z,75.33
2022-12-19T21:09:54.072Z,75.51
2022-12-19T21:11:52.818Z,75.45
2022-12-19T21:13:51.144Z,75.55
2022-12-19T21:15:54.923Z,75.81
2022-12-19T21:17:54.381Z,75.59
2022-12-19T21:19:52.672Z,75.75
2022-12-19T21:21:50.935Z,76.06
2022-12-19T21:23:50.496Z,76.00
2022-12-19T21:25:49.390Z,76.63
2022-12-19T21:27:47.754Z,76.75
2022-12-19T21:29:45.983Z,76.84
2022-12-19T21:31:45.741Z,77.32
2022-12-19T21:33:44.775Z,77.40
2022-12-19T21:35:43.016Z,77.56
2022-12-19T21:37:43.632Z,77.67
2022-12-19T21:39:42.131Z,78.42
2022-12-19T21:41:40.334Z,78.62
2022-12-19T21:43:40.030Z,78.80
2022-12-19T21:45:38.379Z,78.83
2022-12-19T21:47:40.268Z,78.73
2022-12-19T21:49:38.418Z,78.49
2022-12-19T21:51:36.543Z,79.09
2022-12-19T21:53:35.677Z,79.23
2022-12-19T21:55:34.264Z,79.37
2022-12-19T21:57:32.524Z,79.86
2022-12-19T21:59:30.880Z,80.33
2022-12-19T22:01:30.709Z,80.40
2022-12-19T22:03:30.769Z,80.76
2022-12-19T22:05:29.093Z,80.34
2022-12-19T22:07:27.390Z,80.69
2022-12-19T22:09:26.179Z,81.20
2022-12-19T22:11:24.944Z,80.83
2022-12-19T22:13:23.179Z,81.27
2022-12-19T22:15:23.796Z,81.77
2022-12-19T22:17:22.234Z,81.37
2022-12-19T22:19:22.023Z,81.69
2022-12-19T22:21:21.123Z,82.35
2022-12-19T22:23:19.386Z,82.77
2022-12-19T22:25:17.928Z,83.96
2022-12-19T22:27:16.128Z,84.27
2022-12-19T22:29:16.923Z,84.56
2022-12-19T22:31:17.882Z,84.56
2022-12-19T22:33:16.058Z,85.09
2022-12-19T22:35:15.811Z,85.23
2022-12-19T22:37:14.026Z,85.32
2022-12-19T22:39:14.270Z,85.74
2022-12-19T22:41:13.704Z,86.14
2022-12-19T22:43:12.464Z,86.20
2022-12-19T22:45:11.742Z,86.44
2022-12-19T22:47:10.275Z,86.52
2022-12-19T22:49:09.821Z,86.75
2022-12-19T22:51:12.608Z,87.33
2022-12-19T22:53:12.868Z,87.33
2022-12-19T22:55:13.888Z,87.59
2022-12-19T22:57:12.584Z,88.43
2022-12-19T22:59:13.180Z,88.90
2022-12-19T23:01:15.905Z,89.91
2022-12-19T23:03:14.265Z,91.04
2022-12-19T23:05:12.713Z,91.17
2022-12-19T23:07:12.435Z,92.33
2022-12-19T23:09:14.676Z,93.05
2022-12-19T23:11:17.208Z,93.79
2022-12-19T23:13:15.569Z,93.73
2022-12-19T23:15:13.832Z,94.10
2022-12-19T23:17:11.960Z,94.80
2022-12-19T23:19:11.203Z,94.77
2022-12-19T23:21:12.600Z,94.94
2022-12-19T23:23:12.431Z,94.88
2022-12-19T23:25:11.956Z,95.04
2022-12-19T23:27:10.209Z,95.00
2022-12-19T23:29:10.425Z,94.90
2022-12-19T23:31:11.433Z,95.23
2022-12-19T23:33:09.763Z,94.50
2022-12-19T23:35:08.477Z,94.70
2022-12-19T23:37:11.501Z,94.25
2022-12-19T23:39:12.881Z,94.12
2022-12-19T23:41:14.123Z,94.45
2022-12-19T23:43:12.557Z,94.14
2022-12-19T23:45:12.009Z,93.65
2022-12-19T23:47:10.299Z,93.12
2022-12-19T23:49:08.453Z,93.75
2022-12-19T23:51:09.526Z,92.65
2022-12-19T23:53:08.112Z,92.64
2022-12-19T23:55:09.704Z,92.85
2022-12-19T23:57:07.943Z,92.86
2022-12-19T23:59:06.305Z,92.42
